createdAt,value
2023-03-29T00:01:35.866Z,98799.50
2023-03-29T00:04:05.184Z,98806.36
2023-03-29T00:06:33.988Z,98811.58
2023-03-29T00:09:06.372Z,98806.26
2023-03-29T00:11:36.783Z,98807.39
2023-03-29T00:14:04.808Z,98802.73
2023-03-29T00:16:36.451Z,98812.39
2023-03-29T00:19:05.073Z,98807.30
2023-03-29T00:21:33.243Z,98810.04
2023-03-29T00:24:02.241Z,98804.58
2023-03-29T00:26:30.456Z,98803.34
2023-03-29T00:28:58.698Z,98803.45
2023-03-29T00:31:27.653Z,98803.64
2023-03-29T00:33:55.912Z,98809.30
2023-03-29T00:36:24.013Z,98816.40
2023-03-29T00:38:53.099Z,98827.27
2023-03-29T00:41:21.634Z,98812.88
2023-03-29T00:43:56.143Z,98823.60
2023-03-29T00:46:25.049Z,98825.25
2023-03-29T00:48:55.242Z,98829.41
2023-03-29T00:51:24.943Z,98831.61
2023-03-29T00:53:59.255Z,98836.76
2023-03-29T00:56:37.281Z,98835.88
2023-03-29T00:59:17.857Z,98846.98
2023-03-29T01:02:02.167Z,98860.11
2023-03-29T01:04:36.456Z,98860.28
2023-03-29T01:07:09.509Z,98877.30
2023-03-29T01:09:38.181Z,98881.77
2023-03-29T01:12:19.705Z,98890.99
2023-03-29T01:14:54.372Z,98894.14
2023-03-29T01:17:25.585Z,98897.52
2023-03-29T01:20:20.251Z,98910.66
2023-03-29T01:23:18.299Z,98920.30
2023-03-29T01:26:05.144Z,98921.36
2023-03-29T01:28:36.395Z,98918.84
2023-03-29T01:31:08.633Z,98919.63
2023-03-29T01:33:46.346Z,98920.10
2023-03-29T01:36:17.440Z,98918.84
2023-03-29T01:38:51.156Z,98924.08
2023-03-29T01:41:19.669Z,98929.15
2023-03-29T01:43:57.011Z,98926.89
2023-03-29T01:46:27.726Z,98929.15
2023-03-29T01:48:59.851Z,98932.49
2023-03-29T01:51:49.734Z,98934.69
2023-03-29T01:54:24.218Z,98937.75
2023-03-29T01:56:53.100Z,98941.70
2023-03-29T01:59:23.056Z,98950.81
2023-03-29T02:01:53.058Z,98953.92
2023-03-29T02:04:29.242Z,98960.42
2023-03-29T02:06:59.458Z,98972.23
2023-03-29T02:09:29.015Z,98974.17
2023-03-29T02:11:59.054Z,98977.72
2023-03-29T02:14:30.766Z,98988.69
2023-03-29T02:17:32.165Z,98988.70
2023-03-29T02:20:17.696Z,98998.16
2023-03-29T02:22:54.618Z,98997.85
2023-03-29T02:25:24.498Z,99002.63
2023-03-29T02:27:57.225Z,99007.73
2023-03-29T02:30:47.831Z,99004.48
2023-03-29T02:33:31.396Z,99010.64
2023-03-29T02:36:04.414Z,99014.02
2023-03-29T02:38:36.438Z,99016.52
2023-03-29T02:41:05.675Z,99015.16
2023-03-29T02:43:33.623Z,99019.55
2023-03-29T02:46:01.902Z,99015.52
2023-03-29T02:48:30.667Z,99014.11
2023-03-29T02:51:14.307Z,99014.69
2023-03-29T02:53:54.976Z,99020.45
2023-03-29T02:56:23.145Z,99018.17
2023-03-29T02:58:53.723Z,99023.26
2023-03-29T03:01:23.097Z,99025.52
2023-03-29T03:03:53.913Z,99026.91
2023-03-29T03:06:23.020Z,99021.84
2023-03-29T03:08:51.575Z,99021.36
2023-03-29T03:11:20.516Z,99019.37
2023-03-29T03:13:48.656Z,99018.74
2023-03-29T03:16:17.263Z,99026.45
2023-03-29T03:18:49.424Z,99023.35
2023-03-29T03:21:18.943Z,99023.77
2023-03-29T03:23:47.403Z,99028.75
2023-03-29T03:26:18.248Z,99026.85
2023-03-29T03:28:47.735Z,99031.05
2023-03-29T03:31:36.137Z,99030.70
2023-03-29T03:34:19.521Z,99036.42
2023-03-29T03:36:55.625Z,99042.40
2023-03-29T03:39:24.579Z,99041.41
2023-03-29T03:41:53.041Z,99045.02
2023-03-29T03:44:22.998Z,99040.91
2023-03-29T03:47:01.685Z,99051.52
2023-03-29T03:49:34.812Z,99050.85
2023-03-29T03:52:03.144Z,99054.33
2023-03-29T03:54:32.190Z,99054.14
2023-03-29T03:57:24.619Z,99055.86
2023-03-29T03:59:53.943Z,99062.64
2023-03-29T04:02:29.223Z,99063.07
2023-03-29T04:04:57.968Z,99066.58
2023-03-29T04:07:32.726Z,99076.17
2023-03-29T04:10:13.736Z,99077.73
2023-03-29T04:12:52.467Z,99082.36
2023-03-29T04:15:24.138Z,99090.83
2023-03-29T04:17:59.826Z,99099.82
2023-03-29T04:20:43.518Z,99104.73
2023-03-29T04:23:18.001Z,99111.12
2023-03-29T04:25:46.693Z,99115.23
2023-03-29T04:28:33.616Z,99119.98
2023-03-29T04:31:17.184Z,99123.27
2023-03-29T04:34:01.734Z,99123.90
2023-03-29T04:36:30.156Z,99125.48
2023-03-29T04:39:01.660Z,99126.05
2023-03-29T04:41:30.336Z,99126.12
2023-03-29T04:44:08.548Z,99128.41
2023-03-29T04:46:38.898Z,99126.77
2023-03-29T04:49:07.633Z,99130.75
2023-03-29T04:51:42.332Z,99136.49
2023-03-29T04:54:13.931Z,99139.14
2023-03-29T04:57:14.485Z,99139.69
2023-03-29T05:00:14.874Z,99141.77
2023-03-29T05:03:11.561Z,99145.71
2023-03-29T05:05:41.988Z,99146.79
2023-03-29T05:08:13.227Z,99150.89
2023-03-29T05:11:00.663Z,99149.61
2023-03-29T05:13:29.665Z,99160.23
2023-03-29T05:15:58.242Z,99157.80
2023-03-29T05:18:27.721Z,99158.86
2023-03-29T05:20:56.985Z,99162.20
2023-03-29T05:23:26.408Z,99162.77
2023-03-29T05:26:08.402Z,99162.88
2023-03-29T05:28:36.783Z,99164.88
2023-03-29T05:31:06.273Z,99167.60
2023-03-29T05:33:36.619Z,99167.10
2023-03-29T05:36:09.174Z,99170.29
2023-03-29T05:38:41.137Z,99168.13
2023-03-29T05:41:10.970Z,99168.38
2023-03-29T05:44:02.606Z,99169.01
2023-03-29T05:46:31.599Z,99178.61
2023-03-29T05:49:04.272Z,99179.47
2023-03-29T05:51:57.298Z,99182.60
2023-03-29T05:54:27.210Z,99178.66
2023-03-29T05:56:56.043Z,99179.66
2023-03-29T05:59:24.560Z,99181.88
2023-03-29T06:01:53.143Z,99184.65
2023-03-29T06:04:22.330Z,99188.43
2023-03-29T06:07:02.155Z,99188.34
2023-03-29T06:09:32.148Z,99193.66
2023-03-29T06:12:04.311Z,99198.38
2023-03-29T06:14:42.847Z,99199.98
2023-03-29T06:17:24.261Z,99213.84
2023-03-29T06:19:53.513Z,99214.63
2023-03-29T06:22:23.060Z,99216.40
2023-03-29T06:24:54.616Z,99220.15
2023-03-29T06:27:30.109Z,99223.48
2023-03-29T06:29:59.949Z,99228.98
2023-03-29T06:32:29.874Z,99231.48
2023-03-29T06:35:05.079Z,99233.80
2023-03-29T06:37:40.531Z,99239.55
2023-03-29T06:40:19.260Z,99243.38
2023-03-29T06:42:51.204Z,99249.00
2023-03-29T06:45:46.316Z,99256.54
2023-03-29T06:48:22.755Z,99262.92
2023-03-29T06:50:54.952Z,99268.20
2023-03-29T06:53:28.223Z,99267.55
2023-03-29T06:56:01.144Z,99276.60
2023-03-29T06:58:56.870Z,99277.70
2023-03-29T07:01:48.315Z,99278.39
2023-03-29T07:04:37.369Z,99279.98
2023-03-29T07:07:37.534Z,99289.61
2023-03-29T07:10:13.278Z,99291.48
2023-03-29T07:13:12.196Z,99298.95
2023-03-29T07:15:41.047Z,99308.94
2023-03-29T07:18:23.812Z,99310.55
2023-03-29T07:20:52.475Z,99311.33
2023-03-29T07:23:20.432Z,99318.39
2023-03-29T07:25:49.661Z,99319.77
2023-03-29T07:28:18.647Z,99326.08
2023-03-29T07:30:47.792Z,99329.53
2023-03-29T07:33:27.592Z,99335.35
2023-03-29T07:36:02.032Z,99337.33
2023-03-29T07:38:45.423Z,99339.61
2023-03-29T07:41:18.352Z,99345.08
2023-03-29T07:43:52.139Z,99350.11
2023-03-29T07:46:24.563Z,99354.86
2023-03-29T07:48:53.671Z,99354.92
2023-03-29T07:51:22.864Z,99350.63
2023-03-29T07:53:55.968Z,99359.54
2023-03-29T07:56:56.525Z,99365.53
2023-03-29T07:59:39.967Z,99369.41
2023-03-29T08:02:19.265Z,99376.83
2023-03-29T08:04:49.767Z,99376.52
2023-03-29T08:07:21.747Z,99382.88
2023-03-29T08:10:09.849Z,99380.85
2023-03-29T08:12:56.831Z,99381.99
2023-03-29T08:15:47.464Z,99386.23
2023-03-29T08:18:29.457Z,99391.97
2023-03-29T08:20:59.765Z,99393.15
2023-03-29T08:23:28.555Z,99397.92
2023-03-29T08:26:11.710Z,99403.17
2023-03-29T08:28:40.444Z,99405.15
2023-03-29T08:31:13.396Z,99401.16
2023-03-29T08:33:46.843Z,99413.11
2023-03-29T08:36:33.328Z,99415.35
2023-03-29T08:39:08.488Z,99422.96
2023-03-29T08:41:57.440Z,99421.39
2023-03-29T08:44:44.011Z,99421.57
2023-03-29T08:47:31.429Z,99424.02
2023-03-29T08:49:59.858Z,99429.48
2023-03-29T08:52:55.576Z,99430.42
2023-03-29T08:55:48.126Z,99432.76
2023-03-29T08:58:51.953Z,99431.10
2023-03-29T09:01:23.288Z,99426.07
2023-03-29T09:04:09.113Z,99428.52
2023-03-29T09:06:54.385Z,99433.45
2023-03-29T09:09:29.894Z,99437.27
2023-03-29T09:12:24.327Z,99436.69
2023-03-29T09:15:23.795Z,99438.48
2023-03-29T09:18:25.955Z,99440.63
2023-03-29T09:20:57.221Z,99443.08
2023-03-29T09:23:42.104Z,99440.88
2023-03-29T09:26:58.449Z,99446.02
2023-03-29T09:29:50.462Z,99447.98
2023-03-29T09:32:22.617Z,99456.07
2023-03-29T09:35:03.593Z,99465.81
2023-03-29T09:37:37.317Z,99467.00
2023-03-29T09:40:15.856Z,99477.13
2023-03-29T09:42:54.386Z,99477.48
2023-03-29T09:47:53.319Z,99487.83
2023-03-29T09:50:47.910Z,99485.77
2023-03-29T09:53:18.616Z,99491.74
2023-03-29T09:55:55.403Z,99494.57
2023-03-29T09:58:34.348Z,99504.08
2023-03-29T10:01:05.665Z,99511.63
2023-03-29T10:03:39.433Z,99515.86
2023-03-29T10:06:16.439Z,99512.52
2023-03-29T10:08:55.072Z,99512.23
2023-03-29T10:11:37.084Z,99513.30
2023-03-29T10:14:11.717Z,99512.14
2023-03-29T10:17:50.364Z,99528.92
2023-03-29T10:20:19.789Z,99528.59
2023-03-29T10:22:56.727Z,99529.52
2023-03-29T10:25:27.909Z,99530.39
2023-03-29T10:27:58.472Z,99536.40
2023-03-29T10:30:28.298Z,99536.10
2023-03-29T10:32:58.323Z,99540.70
2023-03-29T10:35:33.902Z,99544.65
2023-03-29T10:38:04.111Z,99544.31
2023-03-29T10:40:35.875Z,99547.41
2023-03-29T10:43:19.442Z,99547.64
2023-03-29T10:45:52.056Z,99551.95
2023-03-29T10:48:25.237Z,99552.98
2023-03-29T10:50:57.453Z,99557.55
2023-03-29T10:53:30.264Z,99564.09
2023-03-29T10:56:10.280Z,99565.94
2023-03-29T10:58:42.421Z,99574.39
2023-03-29T11:01:17.506Z,99574.58
2023-03-29T11:04:04.821Z,99576.52
2023-03-29T11:06:45.535Z,99580.31
2023-03-29T11:09:36.380Z,99575.45
2023-03-29T11:12:16.145Z,99577.33
2023-03-29T11:15:19.081Z,99569.94
2023-03-29T11:17:51.210Z,99573.69
2023-03-29T11:20:50.880Z,99572.14
2023-03-29T11:23:27.859Z,99574.64
2023-03-29T11:26:16.697Z,99573.48
2023-03-29T11:29:01.668Z,99577.42
2023-03-29T11:31:56.814Z,99574.50
2023-03-29T11:34:53.307Z,99576.64
2023-03-29T11:37:29.334Z,99570.66
2023-03-29T11:40:22.610Z,99575.55
2023-03-29T11:42:54.291Z,99573.70
2023-03-29T11:45:49.023Z,99575.83
2023-03-29T11:48:22.391Z,99577.17
2023-03-29T11:50:55.562Z,99580.63
2023-03-29T11:53:28.459Z,99580.30
2023-03-29T11:55:57.121Z,99588.84
2023-03-29T11:58:38.342Z,99583.97
2023-03-29T12:01:10.745Z,99587.58
2023-03-29T12:03:48.483Z,99590.95
2023-03-29T12:06:32.643Z,99596.86
2023-03-29T12:09:01.520Z,99599.45
2023-03-29T12:11:33.817Z,99594.08
2023-03-29T12:14:17.161Z,99604.20
2023-03-29T12:16:58.656Z,99603.40
2023-03-29T12:19:41.016Z,99612.52
2023-03-29T12:22:11.226Z,99609.70
2023-03-29T12:24:44.586Z,99612.77
2023-03-29T12:27:27.157Z,99610.10
2023-03-29T12:30:22.151Z,99608.55
2023-03-29T12:33:15.956Z,99606.22
2023-03-29T12:36:32.048Z,99613.38
2023-03-29T12:39:20.010Z,99619.57
2023-03-29T12:42:17.318Z,99621.87
2023-03-29T12:45:04.527Z,99621.88
2023-03-29T12:47:44.424Z,99624.08
2023-03-29T12:50:28.599Z,99629.84
2023-03-29T12:53:13.327Z,99628.25
2023-03-29T12:55:41.723Z,99634.65
2023-03-29T12:58:21.688Z,99636.34
2023-03-29T13:00:56.933Z,99638.61
2023-03-29T13:03:40.494Z,99644.45
2023-03-29T13:06:10.444Z,99638.73
2023-03-29T13:08:41.183Z,99639.18
2023-03-29T13:11:27.691Z,99640.47
2023-03-29T13:13:55.854Z,99646.57
2023-03-29T13:16:32.878Z,99645.21
2023-03-29T13:19:11.655Z,99649.30
2023-03-29T13:22:07.973Z,99647.61
2023-03-29T13:25:02.382Z,99656.38
2023-03-29T13:28:02.800Z,99665.50
2023-03-29T13:30:36.347Z,99669.30
2023-03-29T13:33:17.656Z,99669.77
2023-03-29T13:36:02.843Z,99675.30
2023-03-29T13:38:32.284Z,99680.52
2023-03-29T13:41:07.397Z,99690.82
2023-03-29T13:43:52.145Z,99691.33
2023-03-29T13:46:22.357Z,99700.80
2023-03-29T13:49:00.044Z,99706.75
2023-03-29T13:51:37.218Z,99714.59
2023-03-29T13:54:11.558Z,99723.73
2023-03-29T13:56:55.165Z,99730.67
2023-03-29T13:59:47.543Z,99726.00
2023-03-29T14:02:31.612Z,99732.13
2023-03-29T14:05:04.269Z,99739.86
2023-03-29T14:07:33.181Z,99741.66
2023-03-29T14:10:05.007Z,99749.79
2023-03-29T14:12:41.156Z,99753.66
2023-03-29T14:15:21.547Z,99760.85
2023-03-29T14:17:54.129Z,99763.48
2023-03-29T14:20:22.507Z,99767.00
2023-03-29T14:22:53.837Z,99768.64
2023-03-29T14:25:22.834Z,99763.89
2023-03-29T14:27:51.338Z,99775.13
2023-03-29T14:30:21.817Z,99780.95
2023-03-29T14:32:52.468Z,99780.23
2023-03-29T14:35:21.036Z,99785.74
2023-03-29T14:37:49.345Z,99786.11
2023-03-29T14:40:20.714Z,99790.38
2023-03-29T14:42:50.933Z,99792.20
2023-03-29T14:45:18.897Z,99792.15
2023-03-29T14:47:48.029Z,99789.63
2023-03-29T14:50:18.973Z,99795.30
2023-03-29T14:52:49.318Z,99803.52
2023-03-29T14:55:23.749Z,99809.20
2023-03-29T14:57:54.304Z,99804.00
2023-03-29T15:00:24.770Z,99806.73
2023-03-29T15:03:01.054Z,99814.27
2023-03-29T15:05:37.051Z,99812.61
2023-03-29T15:08:07.459Z,99820.50
2023-03-29T15:10:37.084Z,99820.23
2023-03-29T15:13:06.797Z,99822.75
2023-03-29T15:15:38.540Z,99824.02
2023-03-29T15:18:07.015Z,99833.27
2023-03-29T15:20:37.780Z,99835.86
2023-03-29T15:23:09.547Z,99835.76
2023-03-29T15:25:38.954Z,99835.91
2023-03-29T15:28:22.737Z,99835.13
2023-03-29T15:31:07.201Z,99837.87
2023-03-29T15:33:38.250Z,99843.58
2023-03-29T15:36:07.479Z,99848.61
2023-03-29T15:38:44.113Z,99855.14
2023-03-29T15:41:14.391Z,99866.84
2023-03-29T15:43:43.353Z,99869.10
2023-03-29T15:46:12.287Z,99870.62
2023-03-29T15:48:40.716Z,99869.48
2023-03-29T15:51:12.711Z,99875.16
2023-03-29T15:53:42.316Z,99879.16
2023-03-29T15:56:15.885Z,99882.55
2023-03-29T15:58:46.978Z,99885.86
2023-03-29T16:01:34.190Z,99886.90
2023-03-29T16:04:03.876Z,99890.75
2023-03-29T16:06:33.728Z,99894.74
2023-03-29T16:09:02.251Z,99899.29
2023-03-29T16:11:30.296Z,99896.53
2023-03-29T16:14:02.154Z,99894.85
2023-03-29T16:16:31.482Z,99898.08
2023-03-29T16:19:05.470Z,99904.83
2023-03-29T16:21:34.152Z,99905.80
2023-03-29T16:24:02.489Z,99904.93
2023-03-29T16:26:32.659Z,99900.06
2023-03-29T16:29:00.779Z,99902.45
2023-03-29T16:31:28.939Z,99904.72
2023-03-29T16:33:58.717Z,99903.91
2023-03-29T16:36:28.450Z,99908.40
2023-03-29T16:38:58.789Z,99903.16
2023-03-29T16:41:27.854Z,99905.89
2023-03-29T16:43:56.120Z,99912.31
2023-03-29T16:46:24.455Z,99913.34
2023-03-29T16:48:53.984Z,99917.90
2023-03-29T16:51:26.480Z,99920.21
2023-03-29T16:53:54.572Z,99925.41
2023-03-29T16:56:22.869Z,99932.29
2023-03-29T16:58:52.651Z,99935.80
2023-03-29T17:01:22.808Z,99944.64
2023-03-29T17:03:52.143Z,99955.46
2023-03-29T17:06:22.082Z,99951.69
2023-03-29T17:08:50.896Z,99954.83
2023-03-29T17:11:23.190Z,99956.55
2023-03-29T17:13:53.414Z,99961.13
2023-03-29T17:16:21.963Z,99955.56
2023-03-29T17:18:51.002Z,99960.69
2023-03-29T17:21:19.321Z,99969.85
2023-03-29T17:23:49.334Z,99970.02
2023-03-29T17:26:18.120Z,99972.14
2023-03-29T17:28:46.297Z,99973.25
2023-03-29T17:31:18.319Z,99976.05
2023-03-29T17:33:47.748Z,99979.66
2023-03-29T17:36:15.964Z,99982.52
2023-03-29T17:38:48.931Z,99980.36
2023-03-29T17:41:18.104Z,99983.70
2023-03-29T17:43:47.840Z,99986.30
2023-03-29T17:46:18.182Z,99988.61
2023-03-29T17:48:46.228Z,99990.69
2023-03-29T17:51:14.501Z,99992.65
2023-03-29T17:53:42.590Z,99989.61
2023-03-29T17:56:13.768Z,99993.98
2023-03-29T17:58:42.628Z,99996.59
2023-03-29T18:01:19.569Z,100002.56
2023-03-29T18:03:48.399Z,100010.52
2023-03-29T18:06:20.709Z,100020.89
2023-03-29T18:08:48.921Z,100026.69
2023-03-29T18:11:22.464Z,100029.73
2023-03-29T18:13:52.048Z,100032.23
2023-03-29T18:16:21.648Z,100032.33
2023-03-29T18:18:52.201Z,100032.21
2023-03-29T18:21:20.224Z,100041.70
2023-03-29T18:23:49.053Z,100053.00
2023-03-29T18:26:17.121Z,100053.00
2023-03-29T18:28:48.837Z,100055.50
2023-03-29T18:31:17.360Z,100047.11
2023-03-29T18:33:47.061Z,100046.90
2023-03-29T18:36:15.602Z,100050.15
2023-03-29T18:38:44.105Z,100046.08
2023-03-29T18:41:13.282Z,100046.70
2023-03-29T18:43:43.110Z,100048.78
2023-03-29T18:46:11.733Z,100050.53
2023-03-29T18:48:42.028Z,100055.55
2023-03-29T18:51:11.361Z,100057.48
2023-03-29T18:53:41.983Z,100067.14
2023-03-29T18:56:11.478Z,100065.17
2023-03-29T18:58:40.096Z,100056.46
2023-03-29T19:01:09.697Z,100060.84
2023-03-29T19:03:44.902Z,100062.65
2023-03-29T19:06:15.353Z,100064.33
2023-03-29T19:08:47.561Z,100061.81
2023-03-29T19:11:16.336Z,100059.19
2023-03-29T19:13:46.532Z,100056.80
2023-03-29T19:16:17.756Z,100056.32
2023-03-29T19:18:46.652Z,100062.98
2023-03-29T19:21:14.888Z,100061.59
2023-03-29T19:23:48.579Z,100060.24
2023-03-29T19:26:16.834Z,100059.48
2023-03-29T19:28:44.764Z,100066.73
2023-03-29T19:31:13.121Z,100063.08
2023-03-29T19:33:42.144Z,100063.48
2023-03-29T19:36:10.515Z,100067.80
2023-03-29T19:38:38.701Z,100078.55
2023-03-29T19:41:10.162Z,100079.55
2023-03-29T19:43:38.450Z,100076.82
2023-03-29T19:46:10.492Z,100079.48
2023-03-29T19:48:39.450Z,100082.65
2023-03-29T19:51:08.103Z,100082.27
2023-03-29T19:53:38.729Z,100084.22
2023-03-29T19:56:13.361Z,100088.34
2023-03-29T19:58:41.744Z,100091.57
2023-03-29T20:01:11.133Z,100091.81
2023-03-29T20:03:43.728Z,100092.88
2023-03-29T20:06:12.625Z,100094.45
2023-03-29T20:08:41.903Z,100090.73
2023-03-29T20:11:12.641Z,100097.46
2023-03-29T20:13:46.309Z,100101.50
2023-03-29T20:16:16.064Z,100095.20
2023-03-29T20:18:46.689Z,100093.80
2023-03-29T20:21:16.715Z,100098.40
2023-03-29T20:23:45.898Z,100103.69
2023-03-29T20:26:14.443Z,100102.13
2023-03-29T20:28:42.853Z,100107.39
2023-03-29T20:31:12.834Z,100108.13
2023-03-29T20:33:44.696Z,100105.64
2023-03-29T20:36:18.513Z,100111.02
2023-03-29T20:38:46.626Z,100108.94
2023-03-29T20:41:15.521Z,100107.54
2023-03-29T20:43:45.233Z,100104.93
2023-03-29T20:46:18.430Z,100108.39
2023-03-29T20:48:54.390Z,100110.62
2023-03-29T20:51:28.153Z,100117.27
2023-03-29T20:54:04.939Z,100117.39
2023-03-29T20:56:38.577Z,100113.67
2023-03-29T20:59:12.220Z,100113.39
2023-03-29T21:01:42.649Z,100112.61
2023-03-29T21:04:11.675Z,100114.33
2023-03-29T21:06:39.721Z,100111.98
2023-03-29T21:09:09.364Z,100111.67
2023-03-29T21:11:42.692Z,100112.92
2023-03-29T21:14:11.628Z,100118.01
2023-03-29T21:16:42.438Z,100116.13
2023-03-29T21:19:13.020Z,100114.74
2023-03-29T21:21:43.481Z,100121.64
2023-03-29T21:24:13.918Z,100122.98
2023-03-29T21:26:42.118Z,100127.77
2023-03-29T21:29:10.681Z,100129.17
2023-03-29T21:31:40.203Z,100126.82
2023-03-29T21:34:09.021Z,100121.30
2023-03-29T21:36:37.087Z,100123.25
2023-03-29T21:39:05.503Z,100119.73
2023-03-29T21:41:33.504Z,100121.94
2023-03-29T21:44:03.952Z,100120.44
2023-03-29T21:46:32.663Z,100122.79
2023-03-29T21:49:01.010Z,100125.09
2023-03-29T21:51:29.826Z,100122.95
2023-03-29T21:53:57.838Z,100121.09
2023-03-29T21:56:26.381Z,100121.81
2023-03-29T21:58:54.697Z,100123.31
2023-03-29T22:01:22.966Z,100125.14
2023-03-29T22:03:51.507Z,100127.17
2023-03-29T22:06:22.943Z,100131.80
2023-03-29T22:08:53.112Z,100133.65
2023-03-29T22:11:23.446Z,100139.34
2023-03-29T22:13:58.526Z,100143.59
2023-03-29T22:16:29.510Z,100145.38
2023-03-29T22:18:59.255Z,100140.85
2023-03-29T22:21:28.664Z,100136.92
2023-03-29T22:23:59.412Z,100139.19
2023-03-29T22:26:29.660Z,100140.83
2023-03-29T22:29:02.015Z,100141.46
2023-03-29T22:31:32.331Z,100139.53
2023-03-29T22:34:47.874Z,100152.59
2023-03-29T22:37:18.100Z,100147.68
2023-03-29T22:39:46.488Z,100147.77
2023-03-29T22:42:16.296Z,100147.39
2023-03-29T22:44:44.368Z,100147.84
2023-03-29T22:47:12.589Z,100150.32
2023-03-29T22:49:41.025Z,100147.51
2023-03-29T22:52:09.251Z,100142.73
2023-03-29T22:54:37.689Z,100141.10
2023-03-29T22:57:06.053Z,100142.13
2023-03-29T22:59:34.388Z,100144.31
2023-03-29T23:02:02.376Z,100145.23
2023-03-29T23:04:31.800Z,100144.17
2023-03-29T23:07:00.421Z,100143.20
2023-03-29T23:09:29.040Z,100144.59
2023-03-29T23:11:58.788Z,100144.04
2023-03-29T23:14:28.062Z,100148.82
2023-03-29T23:16:57.684Z,100145.98
2023-03-29T23:19:27.062Z,100146.54
2023-03-29T23:21:55.274Z,100145.30
2023-03-29T23:24:23.608Z,100149.28
2023-03-29T23:26:52.134Z,100152.08
2023-03-29T23:29:22.960Z,100152.17
2023-03-29T23:31:52.012Z,100155.60
2023-03-29T23:34:20.550Z,100160.08
2023-03-29T23:36:49.195Z,100166.52
2023-03-29T23:39:17.528Z,100170.18
2023-03-29T23:41:45.891Z,100172.02
2023-03-29T23:44:16.959Z,100173.51
2023-03-29T23:46:46.417Z,100169.27
2023-03-29T23:49:17.262Z,100171.34
2023-03-29T23:51:48.299Z,100169.13
2023-03-29T23:54:17.419Z,100164.27
2023-03-29T23:56:48.279Z,100161.33
2023-03-29T23:59:19.652Z,100158.60
